Terminal Aerodrome Forecast
Issued by NWS Jacksonville, FL

Home | Current Version | Previous Version | Text Only | Print | Product List | Glossary On
Versions: 1 2 3 4 5 6 7 8 9 10 11 12 13 14 15 16 17 18
000
FTUS42 KJAX 021120
TAFSSI
TAF
KSSI 021120Z 0212/0312 25008KT P6SM SCT025 SCT250
     FM021700 18011KT P6SM VCTS BKN045CB BKN150 BKN250
      TEMPO 0218/0222 VRB15G30KT 3SM TSRA BR SCT025 BKN040CB OVC090
     FM022300 26008KT P6SM VCTS SCT020 BKN040CB OVC150
     FM030200 24006KT P6SM BKN150 BKN250=

USA.gov is the U.S. government's official web portal to all federal, state and local government web resources and services.